createdAt,value
2023-01-20T00:04:00.987Z,3.30
2023-01-20T00:09:06.086Z,3.40
2023-01-20T00:14:11.635Z,3.30
2023-01-20T00:19:15.433Z,3.30
2023-01-20T00:24:19.525Z,3.30
2023-01-20T00:29:25.657Z,3.30
2023-01-20T00:34:29.338Z,3.20
2023-01-20T00:39:33.042Z,3.20
2023-01-20T00:44:37.899Z,3.20
2023-01-20T00:49:41.678Z,3.20
2023-01-20T00:54:45.340Z,3.20
2023-01-20T00:59:50.389Z,3.20
2023-01-20T01:04:53.814Z,3.10
2023-01-20T01:09:57.324Z,3.10
2023-01-20T01:15:03.079Z,3.10
2023-01-20T01:20:07.785Z,3.10
2023-01-20T01:25:11.900Z,3.10
2023-01-20T01:30:17.598Z,3.10
2023-01-20T01:35:21.516Z,3.10
2023-01-20T01:40:25.394Z,3.10
2023-01-20T01:45:31.579Z,3.10
2023-01-20T01:50:42.318Z,3.00
2023-01-20T01:55:52.069Z,3.00
2023-01-20T02:00:57.243Z,3.00
2023-01-20T02:06:01.358Z,3.00
2023-01-20T02:11:04.897Z,3.00
2023-01-20T02:16:19.534Z,3.00
2023-01-20T02:21:48.898Z,3.00
2023-01-20T02:27:01.137Z,2.90
2023-01-20T02:32:22.860Z,3.00
2023-01-20T02:37:29.778Z,3.00
2023-01-20T02:42:39.621Z,3.00
2023-01-20T02:47:52.555Z,3.00
2023-01-20T02:53:00.238Z,3.00
2023-01-20T02:58:08.655Z,3.00
2023-01-20T03:03:17.109Z,3.00
2023-01-20T03:08:23.188Z,3.00
2023-01-20T03:13:32.281Z,3.00
2023-01-20T03:18:40.736Z,3.00
2023-01-20T03:23:47.841Z,3.00
2023-01-20T03:28:52.377Z,3.00
2023-01-20T03:34:00.152Z,3.00
2023-01-20T03:39:04.459Z,2.90
2023-01-20T03:44:13.418Z,2.90
2023-01-20T03:49:26.588Z,2.90
2023-01-20T03:54:36.003Z,2.80
2023-01-20T03:59:41.887Z,2.80
2023-01-20T04:04:50.381Z,2.70
2023-01-20T04:09:58.077Z,2.60
2023-01-20T04:15:02.531Z,2.50
2023-01-20T04:20:10.439Z,2.50
2023-01-20T04:25:18.768Z,2.50
2023-01-20T04:30:22.604Z,2.50
2023-01-20T04:35:27.663Z,2.50
2023-01-20T04:40:31.203Z,2.40
2023-01-20T04:45:35.228Z,2.40
2023-01-20T04:50:41.869Z,2.30
2023-01-20T04:55:45.566Z,2.30
2023-01-20T05:00:49.086Z,2.20
2023-01-20T05:05:57.178Z,2.20
2023-01-20T05:11:00.668Z,2.10
2023-01-20T05:16:04.672Z,2.10
2023-01-20T05:21:10.163Z,2.20
2023-01-20T05:26:14.023Z,2.10
2023-01-20T05:31:18.703Z,2.20
2023-01-20T05:36:23.682Z,2.10
2023-01-20T05:41:27.161Z,2.10
2023-01-20T05:46:30.974Z,2.20
2023-01-20T05:51:35.993Z,2.20
2023-01-20T05:56:39.526Z,2.20
2023-01-20T06:01:43.122Z,2.30
2023-01-20T06:06:48.200Z,2.20
2023-01-20T06:11:52.546Z,2.20
2023-01-20T06:16:56.134Z,2.20
2023-01-20T06:22:01.276Z,2.10
2023-01-20T06:27:05.418Z,2.10
2023-01-20T06:32:09.735Z,2.00
2023-01-20T06:37:15.135Z,1.90
2023-01-20T06:42:19.075Z,1.90
2023-01-20T06:47:22.626Z,2.00
2023-01-20T06:52:27.626Z,2.00
2023-01-20T06:57:31.417Z,2.00
2023-01-20T07:02:35.228Z,2.00
2023-01-20T07:07:40.636Z,2.00
2023-01-20T07:12:44.401Z,1.90
2023-01-20T07:17:48.105Z,1.90
2023-01-20T07:22:52.943Z,1.90
2023-01-20T07:27:57.915Z,1.90
2023-01-20T07:33:02.489Z,1.80
2023-01-20T07:38:07.472Z,1.90
2023-01-20T07:43:11.213Z,1.90
2023-01-20T07:48:14.892Z,1.90
2023-01-20T07:53:19.787Z,2.00
2023-01-20T07:58:23.688Z,2.00
2023-01-20T08:03:27.539Z,2.10
2023-01-20T08:08:33.213Z,2.20
2023-01-20T08:13:37.042Z,2.20
2023-01-20T08:18:42.213Z,2.30
2023-01-20T08:23:47.071Z,2.40
2023-01-20T08:28:50.549Z,2.40
2023-01-20T08:33:55.841Z,2.50
2023-01-20T08:39:03.239Z,2.50
2023-01-20T08:44:08.845Z,2.60
2023-01-20T08:49:14.403Z,2.70
2023-01-20T08:54:19.479Z,2.70
2023-01-20T08:59:23.273Z,2.70
2023-01-20T09:04:26.827Z,2.80
2023-01-20T09:09:31.675Z,2.90
2023-01-20T09:14:35.095Z,3.00
2023-01-20T09:19:38.526Z,3.00
2023-01-20T09:24:43.391Z,3.10
2023-01-20T09:29:46.891Z,3.20
2023-01-20T09:34:53.304Z,3.30
2023-01-20T09:40:15.787Z,3.40
2023-01-20T09:45:26.245Z,3.40
2023-01-20T09:50:59.720Z,3.50
2023-01-20T09:56:11.600Z,3.60
2023-01-20T10:01:24.483Z,3.70
2023-01-20T10:06:34.538Z,3.80
2023-01-20T10:11:44.102Z,3.90
2023-01-20T10:16:55.404Z,4.00
2023-01-20T10:22:09.685Z,4.10
2023-01-20T10:27:14.788Z,4.20
2023-01-20T10:32:29.287Z,4.20
2023-01-20T10:37:33.411Z,4.30
2023-01-20T10:42:38.230Z,4.30
2023-01-20T10:47:49.493Z,4.40
2023-01-20T10:53:18.911Z,4.50
2023-01-20T10:58:26.847Z,4.60
2023-01-20T11:03:36.154Z,4.70
2023-01-20T11:08:39.620Z,4.70
2023-01-20T11:13:44.949Z,4.80
2023-01-20T11:18:58.383Z,4.80
2023-01-20T11:24:02.196Z,4.90
2023-01-20T11:29:29.025Z,4.90
2023-01-20T11:34:35.160Z,5.00
2023-01-20T11:39:45.157Z,5.00
2023-01-20T11:44:51.247Z,5.00
2023-01-20T11:50:26.330Z,5.10
2023-01-20T11:55:29.923Z,5.10
2023-01-20T12:00:40.540Z,5.20
2023-01-20T12:05:49.418Z,5.20
2023-01-20T12:10:55.839Z,5.20
2023-01-20T12:16:02.387Z,5.20
2023-01-20T12:21:18.410Z,5.20
2023-01-20T12:26:23.958Z,5.20
2023-01-20T12:31:29.173Z,5.20
2023-01-20T12:36:58.570Z,5.20
2023-01-20T12:42:35.451Z,5.20
2023-01-20T12:47:53.447Z,5.20
2023-01-20T12:53:11.752Z,5.30
2023-01-20T12:58:25.325Z,5.30
2023-01-20T13:03:57.635Z,5.30
2023-01-20T13:09:13.049Z,5.30
2023-01-20T13:14:22.045Z,5.30
2023-01-20T13:19:32.482Z,5.30
2023-01-20T13:24:37.375Z,5.40
2023-01-20T13:29:56.008Z,5.40
2023-01-20T13:35:04.310Z,5.40
2023-01-20T13:40:48.695Z,5.50
2023-01-20T13:46:46.707Z,5.50
2023-01-20T13:51:51.588Z,5.50
2023-01-20T13:57:45.423Z,5.50
2023-01-20T14:02:50.869Z,5.50
2023-01-20T14:07:56.982Z,5.40
2023-01-20T14:13:01.393Z,5.40
2023-01-20T14:18:06.212Z,5.30
2023-01-20T14:23:27.461Z,5.30
2023-01-20T14:28:31.555Z,5.30
2023-01-20T14:33:35.072Z,5.30
2023-01-20T14:38:55.741Z,5.30
2023-01-20T14:44:01.127Z,5.20
2023-01-20T14:49:06.201Z,5.10
2023-01-20T14:54:31.088Z,5.00
2023-01-20T14:59:34.935Z,5.00
2023-01-20T15:04:38.885Z,5.00
2023-01-20T15:09:51.629Z,4.90
2023-01-20T15:15:07.121Z,4.90
2023-01-20T15:20:28.743Z,4.80
2023-01-20T15:25:38.184Z,4.60
2023-01-20T15:30:41.803Z,4.60
2023-01-20T15:35:45.372Z,4.60
2023-01-20T15:40:50.485Z,4.50
2023-01-20T15:45:53.926Z,4.50
2023-01-20T15:50:57.382Z,4.50
2023-01-20T15:56:02.381Z,4.40
2023-01-20T16:01:06.165Z,4.30
2023-01-20T16:06:14.509Z,4.20
2023-01-20T16:11:20.335Z,4.10
2023-01-20T16:16:26.801Z,4.00
2023-01-20T16:21:32.190Z,4.00
2023-01-20T16:26:37.277Z,3.90
2023-01-20T16:31:40.692Z,3.80
2023-01-20T16:36:44.480Z,3.80
2023-01-20T16:41:50.065Z,3.80
2023-01-20T16:46:53.462Z,3.80
2023-01-20T16:51:57.162Z,3.80
2023-01-20T16:57:01.949Z,3.70
2023-01-20T17:02:05.677Z,3.60
2023-01-20T17:07:09.171Z,3.70
2023-01-20T17:12:14.025Z,3.70
2023-01-20T17:17:17.511Z,3.60
2023-01-20T17:22:20.956Z,3.60
2023-01-20T17:27:26.135Z,3.70
2023-01-20T17:32:29.547Z,3.70
2023-01-20T17:37:33.115Z,3.80
2023-01-20T17:42:39.415Z,3.70
2023-01-20T17:47:42.922Z,3.70
2023-01-20T17:52:50.488Z,3.80
2023-01-20T17:57:55.351Z,3.70
2023-01-20T18:02:58.787Z,3.70
2023-01-20T18:08:02.322Z,3.60
2023-01-20T18:13:07.286Z,3.50
2023-01-20T18:18:10.757Z,3.40
2023-01-20T18:23:14.188Z,3.30
2023-01-20T18:28:18.957Z,3.20
2023-01-20T18:33:22.431Z,3.20
2023-01-20T18:38:25.889Z,3.20
2023-01-20T18:43:31.320Z,3.10
2023-01-20T18:48:38.140Z,3.10
2023-01-20T18:53:43.529Z,3.10
2023-01-20T18:58:49.664Z,3.10
2023-01-20T19:03:53.466Z,3.10
2023-01-20T19:08:57.680Z,3.10
2023-01-20T19:14:03.840Z,3.20
2023-01-20T19:19:08.966Z,3.00
2023-01-20T19:24:20.092Z,3.00
2023-01-20T19:29:28.335Z,3.00
2023-01-20T19:34:33.732Z,3.00
2023-01-20T19:39:37.586Z,3.00
2023-01-20T19:44:42.456Z,3.00
2023-01-20T19:49:45.931Z,3.10
2023-01-20T19:54:51.808Z,3.10
2023-01-20T19:59:56.932Z,3.20
2023-01-20T20:05:00.594Z,3.10
2023-01-20T20:10:04.574Z,3.00
2023-01-20T20:15:10.696Z,2.90
2023-01-20T20:20:14.873Z,2.80
2023-01-20T20:25:18.541Z,2.80
2023-01-20T20:30:24.172Z,2.70
2023-01-20T20:35:27.761Z,2.70
2023-01-20T20:40:31.639Z,2.60
2023-01-20T20:45:36.412Z,2.50
2023-01-20T20:50:39.884Z,2.50
2023-01-20T20:55:44.052Z,2.40
2023-01-20T21:00:52.285Z,2.30
2023-01-20T21:05:55.896Z,2.30
2023-01-20T21:11:00.951Z,2.20
2023-01-20T21:16:09.730Z,2.20
2023-01-20T21:21:16.974Z,2.20
2023-01-20T21:26:23.228Z,2.20
2023-01-20T21:31:28.159Z,2.20
2023-01-20T21:36:33.934Z,2.20
2023-01-20T21:41:37.362Z,2.20
2023-01-20T21:46:42.194Z,2.10
2023-01-20T21:52:03.529Z,1.90
2023-01-20T21:57:07.625Z,2.00
2023-01-20T22:02:14.092Z,1.90
2023-01-20T22:07:18.614Z,1.90
2023-01-20T22:12:22.037Z,1.80
2023-01-20T22:17:27.135Z,1.70
2023-01-20T22:22:30.856Z,1.60
2023-01-20T22:27:34.353Z,1.50
2023-01-20T22:32:39.387Z,1.40
2023-01-20T22:37:42.886Z,1.40
2023-01-20T22:42:46.346Z,1.20
2023-01-20T22:47:51.105Z,1.20
2023-01-20T22:52:54.865Z,1.20
2023-01-20T22:58:00.600Z,1.10
2023-01-20T23:03:05.678Z,1.20
2023-01-20T23:08:09.379Z,1.20
2023-01-20T23:13:12.975Z,1.10
2023-01-20T23:18:18.771Z,1.10
2023-01-20T23:23:22.910Z,1.20
2023-01-20T23:28:26.681Z,1.20
2023-01-20T23:33:32.309Z,1.30
2023-01-20T23:38:35.752Z,1.30
2023-01-20T23:43:39.480Z,1.30
2023-01-20T23:48:46.402Z,1.30
2023-01-20T23:53:49.790Z,1.30
2023-01-20T23:58:54.266Z,1.20
